Time,TemperatureF,DewpointF,PressureIn,WindDirection,WindDirectionDegrees,WindSpeedMPH,WindSpeedGustMPH,Humidity,HourlyPrecipIn,Conditions,Clouds,dailyrainin,SoftwareType,DateUTC
2013-01-11 00:03:00,50.8,45.5,29.93,South,180,6.3,6.3,82,0.00,,,0.00,WUHU216HW,2013-01-11 06:03:00,
2013-01-11 00:08:00,50.8,45.5,29.92,South,180,5.1,6.3,82,0.00,,,0.00,WUHU216HW,2013-01-11 06:08:00,
2013-01-11 00:13:00,50.6,45.3,29.92,South,180,6.9,7.6,82,0.00,,,0.00,WUHU216HW,2013-01-11 06:13:00,
2013-01-11 00:18:00,50.8,45.5,29.91,South,180,5.4,7.6,82,0.00,,,0.00,WUHU216HW,2013-01-11 06:18:00,
2013-01-11 00:23:00,50.8,45.5,29.91,South,180,6.9,7.2,82,0.00,,,0.00,WUHU216HW,2013-01-11 06:23:00,
2013-01-11 00:28:00,50.8,45.5,29.91,South,180,6.7,8.5,82,0.00,,,0.00,WUHU216HW,2013-01-11 06:28:00,
2013-01-11 00:33:00,50.9,45.6,29.91,South,180,6.5,8.5,82,0.00,,,0.00,WUHU216HW,2013-01-11 06:33:00,
2013-01-11 00:38:00,50.9,45.6,29.91,SSW,203,5.8,8.5,82,0.00,,,0.00,WUHU216HW,2013-01-11 06:38:00,
2013-01-11 00:43:00,51.1,45.5,29.90,South,180,9.6,9.6,81,0.00,,,0.00,WUHU216HW,2013-01-11 06:43:00,
2013-01-11 00:48:00,51.3,45.6,29.91,SSW,203,9.8,9.8,81,0.00,,,0.00,WUHU216HW,2013-01-11 06:48:00,
2013-01-11 00:53:00,51.3,45.6,29.91,SSW,203,9.4,10.3,81,0.00,,,0.00,WUHU216HW,2013-01-11 06:53:00,
2013-01-11 00:58:00,51.3,45.4,29.90,South,180,7.6,11.4,80,0.00,,,0.00,WUHU216HW,2013-01-11 06:58:00,
2013-01-11 01:03:00,51.3,45.4,29.90,SSW,203,6.5,11.4,80,0.00,,,0.00,WUHU216HW,2013-01-11 07:03:00,
2013-01-11 01:08:00,51.3,45.4,29.90,South,180,8.7,8.9,80,0.00,,,0.00,WUHU216HW,2013-01-11 07:08:00,
2013-01-11 01:13:00,51.3,45.4,29.90,South,180,6.5,10.5,80,0.00,,,0.00,WUHU216HW,2013-01-11 07:13:00,
2013-01-11 01:18:00,51.3,45.4,29.90,South,180,8.9,10.5,80,0.00,,,0.00,WUHU216HW,2013-01-11 07:18:00,
2013-01-11 01:23:00,51.3,45.4,29.91,SSW,203,10.1,10.7,80,0.00,,,0.00,WUHU216HW,2013-01-11 07:23:00,
2013-01-11 01:28:00,51.3,45.4,29.91,SSW,203,9.8,11.4,80,0.00,,,0.00,WUHU216HW,2013-01-11 07:28:00,
2013-01-11 01:33:00,51.3,45.4,29.91,SE,135,7.4,11.4,80,0.00,,,0.00,WUHU216HW,2013-01-11 07:33:00,
2013-01-11 01:38:00,51.1,45.2,29.91,South,180,6.9,10.5,80,0.00,,,0.00,WUHU216HW,2013-01-11 07:38:00,
2013-01-11 01:43:00,51.1,45.5,29.91,South,180,8.9,10.5,81,0.00,,,0.00,WUHU216HW,2013-01-11 07:43:00,
2013-01-11 01:48:00,50.9,45.3,29.91,South,180,6.9,9.8,81,0.00,,,0.00,WUHU216HW,2013-01-11 07:48:00,
2013-01-11 01:53:00,50.9,45.3,29.91,SSW,203,10.1,10.1,81,0.00,,,0.00,WUHU216HW,2013-01-11 07:53:00,
2013-01-11 01:58:00,50.8,45.1,29.91,SSW,203,8.5,10.1,81,0.00,,,0.00,WUHU216HW,2013-01-11 07:58:00,
2013-01-11 02:03:00,50.9,45.3,29.91,SSW,203,9.2,10.5,81,0.00,,,0.00,WUHU216HW,2013-01-11 08:03:00,
2013-01-11 02:08:00,50.9,45.3,29.91,South,180,8.3,11.4,81,0.00,,,0.00,WUHU216HW,2013-01-11 08:08:00,
2013-01-11 02:13:00,50.9,45.3,29.91,South,180,5.1,11.4,81,0.00,,,0.00,WUHU216HW,2013-01-11 08:13:00,
2013-01-11 02:18:00,50.9,45.3,29.91,SSW,203,8.5,8.5,81,0.00,,,0.00,WUHU216HW,2013-01-11 08:18:00,
2013-01-11 02:23:00,50.9,45.3,29.91,SSE,158,8.7,10.3,81,0.00,,,0.00,WUHU216HW,2013-01-11 08:23:00,
2013-01-11 02:28:00,50.9,45.0,29.91,SSE,158,6.7,10.3,80,0.00,,,0.00,WUHU216HW,2013-01-11 08:28:00,
2013-01-11 02:33:00,50.9,45.3,29.91,South,180,10.3,10.3,81,0.00,,,0.00,WUHU216HW,2013-01-11 08:33:00,
2013-01-11 02:38:00,50.9,45.0,29.91,South,180,6.3,10.3,80,0.00,,,0.00,WUHU216HW,2013-01-11 08:38:00,
2013-01-11 02:43:00,50.8,45.1,29.91,SSW,203,5.8,9.6,81,0.00,,,0.00,WUHU216HW,2013-01-11 08:43:00,
2013-01-11 02:48:00,50.8,45.1,29.91,South,180,9.8,9.8,81,0.00,,,0.00,WUHU216HW,2013-01-11 08:48:00,
2013-01-11 02:53:00,50.8,45.1,29.91,SSW,203,8.3,10.1,81,0.00,,,0.00,WUHU216HW,2013-01-11 08:53:00,
2013-01-11 02:58:00,50.8,45.1,29.91,SSW,203,7.6,10.1,81,0.00,,,0.00,WUHU216HW,2013-01-11 08:58:00,
2013-01-11 03:03:00,50.8,45.1,29.91,South,180,10.3,10.3,81,0.00,,,0.00,WUHU216HW,2013-01-11 09:03:00,
2013-01-11 03:08:00,50.6,44.9,29.91,South,180,7.6,10.3,81,0.00,,,0.00,WUHU216HW,2013-01-11 09:08:00,
2013-01-11 03:13:00,50.6,44.9,29.91,South,180,6.9,8.9,81,0.00,,,0.00,WUHU216HW,2013-01-11 09:13:00,
2013-01-11 03:18:00,50.4,44.7,29.90,SSE,158,7.6,8.9,81,0.00,,,0.00,WUHU216HW,2013-01-11 09:18:00,
2013-01-11 03:23:00,50.4,44.7,29.90,South,180,7.8,9.2,81,0.00,,,0.00,WUHU216HW,2013-01-11 09:23:00,
2013-01-11 03:28:00,50.2,44.9,29.90,South,180,7.6,9.2,82,0.00,,,0.00,WUHU216HW,2013-01-11 09:28:00,
2013-01-11 03:33:00,50.0,44.7,29.90,South,180,5.1,9.6,82,0.00,,,0.00,WUHU216HW,2013-01-11 09:33:00,
2013-01-11 03:38:00,50.0,44.7,29.90,SSW,203,7.6,9.6,82,0.00,,,0.00,WUHU216HW,2013-01-11 09:38:00,
2013-01-11 03:43:00,50.0,44.7,29.89,SSW,203,5.1,7.8,82,0.00,,,0.00,WUHU216HW,2013-01-11 09:43:00,
2013-01-11 03:48:00,49.9,44.6,29.89,South,180,7.2,7.2,82,0.00,,,0.00,WUHU216HW,2013-01-11 09:48:00,
2013-01-11 03:53:00,49.7,44.4,29.89,SSE,158,4.7,7.2,82,0.00,,,0.00,WUHU216HW,2013-01-11 09:53:00,
2013-01-11 03:58:00,49.3,44.0,29.88,SSE,158,5.8,6.3,82,0.00,,,0.00,WUHU216HW,2013-01-11 09:58:00,
2013-01-11 04:03:00,49.1,44.1,29.89,SSE,158,8.3,10.3,83,0.00,,,0.00,WUHU216HW,2013-01-11 10:03:00,
2013-01-11 04:08:00,49.0,44.3,29.88,South,180,6.5,10.3,84,0.00,,,0.00,WUHU216HW,2013-01-11 10:08:00,
2013-01-11 04:13:00,48.8,43.8,29.87,SSE,158,7.6,9.2,83,0.00,,,0.00,WUHU216HW,2013-01-11 10:13:00,
2013-01-11 04:18:00,48.6,43.9,29.87,South,180,8.9,10.1,84,0.00,,,0.00,WUHU216HW,2013-01-11 10:18:00,
2013-01-11 04:23:00,48.6,43.9,29.86,South,180,8.5,11.0,84,0.00,,,0.00,WUHU216HW,2013-01-11 10:23:00,
2013-01-11 04:28:00,48.6,43.9,29.87,SSW,203,10.5,11.4,84,0.00,,,0.00,WUHU216HW,2013-01-11 10:28:00,
2013-01-11 04:33:00,48.6,43.9,29.86,South,180,12.1,12.5,84,0.00,,,0.00,WUHU216HW,2013-01-11 10:33:00,
2013-01-11 04:38:00,48.6,43.9,29.86,South,180,9.2,13.0,84,0.00,,,0.00,WUHU216HW,2013-01-11 10:38:00,
2013-01-11 04:43:00,48.6,43.9,29.86,South,180,12.1,13.0,84,0.00,,,0.00,WUHU216HW,2013-01-11 10:43:00,
2013-01-11 04:48:00,48.6,43.9,29.86,SSW,203,10.3,13.0,84,0.00,,,0.00,WUHU216HW,2013-01-11 10:48:00,
2013-01-11 04:53:00,48.6,43.9,29.86,South,180,6.9,12.3,84,0.00,,,0.00,WUHU216HW,2013-01-11 10:53:00,
2013-01-11 04:58:00,48.6,43.9,29.86,SSW,203,5.8,9.6,84,0.00,,,0.00,WUHU216HW,2013-01-11 10:58:00,
2013-01-11 05:03:00,48.4,43.7,29.86,South,180,6.9,11.4,84,0.00,,,0.00,WUHU216HW,2013-01-11 11:03:00,
2013-01-11 05:08:00,48.4,43.7,29.87,SW,225,6.5,11.4,84,0.00,,,0.00,WUHU216HW,2013-01-11 11:08:00,
2013-01-11 05:13:00,48.2,43.6,29.86,SSW,203,6.5,8.5,84,0.00,,,0.00,WUHU216HW,2013-01-11 11:13:00,
2013-01-11 05:18:00,48.2,43.6,29.87,SSW,203,5.6,7.6,84,0.00,,,0.00,WUHU216HW,2013-01-11 11:18:00,
2013-01-11 05:23:00,48.1,43.7,29.87,South,180,7.6,7.6,85,0.00,,,0.00,WUHU216HW,2013-01-11 11:23:00,
2013-01-11 05:28:00,48.1,43.7,29.87,SSW,203,3.6,7.6,85,0.00,,,0.00,WUHU216HW,2013-01-11 11:28:00,
2013-01-11 05:33:00,47.9,43.6,29.86,SSW,203,4.0,5.6,85,0.00,,,0.00,WUHU216HW,2013-01-11 11:33:00,
2013-01-11 05:38:00,47.9,43.6,29.87,South,180,5.1,5.6,85,0.00,,,0.00,WUHU216HW,2013-01-11 11:38:00,
2013-01-11 05:43:00,47.9,43.6,29.87,SSW,203,2.9,5.6,85,0.00,,,0.00,WUHU216HW,2013-01-11 11:43:00,
2013-01-11 05:48:00,47.9,43.6,29.87,SSW,203,3.4,5.8,85,0.00,,,0.00,WUHU216HW,2013-01-11 11:48:00,
2013-01-11 05:53:00,47.9,43.6,29.87,SSW,203,3.6,5.8,85,0.00,,,0.00,WUHU216HW,2013-01-11 11:53:00,
2013-01-11 05:58:00,47.9,43.6,29.87,SW,225,4.5,5.4,85,0.00,,,0.00,WUHU216HW,2013-01-11 11:58:00,
2013-01-11 06:03:00,47.9,43.6,29.87,SSW,203,5.1,5.6,85,0.00,,,0.00,WUHU216HW,2013-01-11 12:03:00,
2013-01-11 06:08:00,47.9,43.6,29.86,SW,225,4.7,6.3,85,0.00,,,0.00,WUHU216HW,2013-01-11 12:08:00,
2013-01-11 06:13:00,48.1,43.7,29.86,SSW,203,5.8,6.3,85,0.00,,,0.00,WUHU216HW,2013-01-11 12:13:00,
2013-01-11 06:18:00,48.2,43.9,29.86,South,180,2.5,6.3,85,0.00,,,0.00,WUHU216HW,2013-01-11 12:18:00,
2013-01-11 06:23:00,48.2,43.9,29.86,SSW,203,4.3,4.5,85,0.00,,,0.00,WUHU216HW,2013-01-11 12:23:00,
2013-01-11 06:28:00,48.4,44.1,29.87,South,180,4.3,4.9,85,0.00,,,0.00,WUHU216HW,2013-01-11 12:28:00,
2013-01-11 06:33:00,48.6,44.3,29.87,SSW,203,6.5,6.5,85,0.00,,,0.00,WUHU216HW,2013-01-11 12:33:00,
2013-01-11 06:38:00,49.0,44.7,29.86,SSW,203,7.6,7.6,85,0.00,,,0.00,WUHU216HW,2013-01-11 12:38:00,
2013-01-11 06:43:00,49.3,44.7,29.86,South,180,6.9,8.1,84,0.00,,,0.00,WUHU216HW,2013-01-11 12:43:00,
2013-01-11 06:48:00,49.5,44.8,29.87,SW,225,5.4,8.1,84,0.00,,,0.00,WUHU216HW,2013-01-11 12:48:00,
2013-01-11 06:53:00,49.7,45.0,29.87,SSW,203,8.5,8.5,84,0.00,,,0.00,WUHU216HW,2013-01-11 12:53:00,
2013-01-11 06:58:00,49.7,45.0,29.87,South,180,5.8,9.6,84,0.00,,,0.00,WUHU216HW,2013-01-11 12:58:00,
2013-01-11 07:03:00,49.7,45.0,29.87,SSW,203,5.1,9.6,84,0.00,,,0.00,WUHU216HW,2013-01-11 13:03:00,
2013-01-11 07:08:00,49.7,45.0,29.88,SSW,203,6.0,7.4,84,0.00,,,0.00,WUHU216HW,2013-01-11 13:08:00,
2013-01-11 07:13:00,49.5,44.8,29.87,SSW,203,6.9,6.9,84,0.00,,,0.00,WUHU216HW,2013-01-11 13:13:00,
2013-01-11 07:18:00,49.5,44.8,29.87,SSW,203,6.7,6.9,84,0.00,,,0.00,WUHU216HW,2013-01-11 13:18:00,
2013-01-11 07:23:00,49.3,44.7,29.87,SW,225,4.7,6.9,84,0.00,,,0.00,WUHU216HW,2013-01-11 13:23:00,
2013-01-11 07:28:00,49.3,44.7,29.87,SW,225,4.0,6.3,84,0.00,,,0.00,WUHU216HW,2013-01-11 13:28:00,
2013-01-11 07:33:00,49.3,44.9,29.87,SSW,203,6.0,6.3,85,0.00,,,0.00,WUHU216HW,2013-01-11 13:33:00,
2013-01-11 07:38:00,49.3,44.9,29.87,SW,225,4.9,7.6,85,0.00,,,0.00,WUHU216HW,2013-01-11 13:38:00,
2013-01-11 07:43:00,49.5,45.1,29.87,SSW,203,7.2,7.6,85,0.00,,,0.00,WUHU216HW,2013-01-11 13:43:00,
2013-01-11 07:48:00,49.7,45.6,29.87,SSW,203,6.5,8.5,86,0.00,,,0.00,WUHU216HW,2013-01-11 13:48:00,
2013-01-11 07:53:00,49.9,45.8,29.88,SSW,203,8.1,11.9,86,0.00,,,0.00,WUHU216HW,2013-01-11 13:53:00,
2013-01-11 07:58:00,50.0,45.9,29.87,SSW,203,7.6,11.9,86,0.00,,,0.00,WUHU216HW,2013-01-11 13:58:00,
2013-01-11 08:03:00,50.2,46.1,29.87,SSW,203,8.9,9.2,86,0.00,,,0.00,WUHU216HW,2013-01-11 14:03:00,
2013-01-11 08:08:00,50.6,46.2,29.87,SSW,203,7.8,9.2,85,0.00,,,0.00,WUHU216HW,2013-01-11 14:08:00,
2013-01-11 08:13:00,50.6,46.2,29.88,SSW,203,6.5,9.2,85,0.00,,,0.00,WUHU216HW,2013-01-11 14:13:00,
2013-01-11 08:18:00,50.6,46.2,29.87,South,180,7.6,9.8,85,0.00,,,0.00,WUHU216HW,2013-01-11 14:18:00,
2013-01-11 08:23:00,50.8,46.4,29.87,SW,225,7.2,9.8,85,0.00,,,0.00,WUHU216HW,2013-01-11 14:23:00,
2013-01-11 08:28:00,50.8,46.4,29.87,SSW,203,5.4,9.2,85,0.00,,,0.00,WUHU216HW,2013-01-11 14:28:00,
2013-01-11 08:33:00,51.1,46.7,29.88,SSW,203,10.1,10.1,85,0.00,,,0.00,WUHU216HW,2013-01-11 14:33:00,
2013-01-11 08:38:00,51.1,46.5,29.88,SSW,203,8.5,10.1,84,0.00,,,0.00,WUHU216HW,2013-01-11 14:38:00,
2013-01-11 08:43:00,51.3,46.6,29.88,SSW,203,8.7,10.5,84,0.00,,,0.00,WUHU216HW,2013-01-11 14:43:00,
2013-01-11 08:48:00,51.5,46.8,29.88,SSW,203,8.3,14.1,84,0.00,,,0.00,WUHU216HW,2013-01-11 14:48:00,
2013-01-11 08:53:00,51.7,47.0,29.88,SSW,203,7.2,14.1,84,0.00,,,0.00,WUHU216HW,2013-01-11 14:53:00,
2013-01-11 08:58:00,52.0,47.4,29.88,South,180,9.6,13.2,84,0.00,,,0.00,WUHU216HW,2013-01-11 14:58:00,
2013-01-11 09:03:00,52.2,47.5,29.88,South,180,9.8,13.2,84,0.00,,,0.00,WUHU216HW,2013-01-11 15:03:00,
2013-01-11 09:08:00,53.1,48.4,29.87,South,180,11.4,11.4,84,0.00,,,0.00,WUHU216HW,2013-01-11 15:08:00,
2013-01-11 09:13:00,53.8,48.8,29.88,South,180,9.6,11.4,83,0.00,,,0.00,WUHU216HW,2013-01-11 15:13:00,
2013-01-11 09:18:00,54.4,49.0,29.88,SSE,158,9.8,11.4,82,0.00,,,0.00,WUHU216HW,2013-01-11 15:18:00,
2013-01-11 09:23:00,55.1,49.3,29.88,SSW,203,9.4,12.1,81,0.00,,,0.00,WUHU216HW,2013-01-11 15:23:00,
2013-01-11 09:28:00,55.6,49.9,29.88,South,180,8.5,12.1,81,0.00,,,0.00,WUHU216HW,2013-01-11 15:28:00,
2013-01-11 09:33:00,56.0,50.2,29.88,South,180,7.6,8.9,81,0.00,,,0.00,WUHU216HW,2013-01-11 15:33:00,
2013-01-11 09:38:00,56.3,50.6,29.89,South,180,6.5,11.4,81,0.00,,,0.00,WUHU216HW,2013-01-11 15:38:00,
2013-01-11 09:43:00,56.7,51.0,29.89,SSW,203,10.5,11.4,81,0.00,,,0.00,WUHU216HW,2013-01-11 15:43:00,
2013-01-11 09:48:00,56.7,50.6,29.88,SSW,203,8.5,10.5,80,0.00,,,0.00,WUHU216HW,2013-01-11 15:48:00,
2013-01-11 09:53:00,57.2,51.1,29.88,SSW,203,10.5,10.5,80,0.00,,,0.00,WUHU216HW,2013-01-11 15:53:00,
2013-01-11 09:58:00,58.0,51.5,29.88,SSW,203,11.6,11.6,79,0.00,,,0.00,WUHU216HW,2013-01-11 15:58:00,
2013-01-11 10:03:00,58.7,52.2,29.87,SW,225,7.8,11.6,79,0.00,,,0.00,WUHU216HW,2013-01-11 16:03:00,
2013-01-11 10:08:00,59.0,52.2,29.88,SSW,203,8.7,9.8,78,0.00,,,0.00,WUHU216HW,2013-01-11 16:08:00,
2013-01-11 10:13:00,59.6,52.7,29.88,SW,225,9.2,11.0,78,0.00,,,0.00,WUHU216HW,2013-01-11 16:13:00,
2013-01-11 10:18:00,60.1,52.6,29.87,SW,225,10.5,11.0,76,0.00,,,0.00,WUHU216HW,2013-01-11 16:18:00,
2013-01-11 10:23:00,60.3,52.7,29.87,SSW,203,11.4,12.8,76,0.00,,,0.00,WUHU216HW,2013-01-11 16:23:00,
2013-01-11 10:28:00,59.9,52.4,29.87,SSW,203,13.2,15.4,76,0.00,,,0.00,WUHU216HW,2013-01-11 16:28:00,
2013-01-11 10:33:00,60.1,52.9,29.87,SSW,203,7.4,15.4,77,0.00,,,0.00,WUHU216HW,2013-01-11 16:33:00,
2013-01-11 10:38:00,60.5,52.9,29.87,SW,225,8.5,11.6,76,0.00,,,0.00,WUHU216HW,2013-01-11 16:38:00,
2013-01-11 10:43:00,61.0,53.1,29.88,SSW,203,6.7,13.2,75,0.00,,,0.00,WUHU216HW,2013-01-11 16:43:00,
2013-01-11 10:48:00,61.6,53.6,29.88,SSW,203,10.1,13.2,75,0.00,,,0.00,WUHU216HW,2013-01-11 16:48:00,
2013-01-11 10:53:00,61.7,52.7,29.87,SW,225,13.9,13.9,72,0.00,,,0.00,WUHU216HW,2013-01-11 16:53:00,
2013-01-11 10:58:00,61.6,52.5,29.87,SSW,203,10.1,13.9,72,0.00,,,0.00,WUHU216HW,2013-01-11 16:58:00,
2013-01-11 11:03:00,61.6,52.8,29.87,SW,225,9.8,12.5,73,0.00,,,0.00,WUHU216HW,2013-01-11 17:03:00,
2013-01-11 11:08:00,62.1,53.4,29.87,SSW,203,10.5,10.5,73,0.00,,,0.00,WUHU216HW,2013-01-11 17:08:00,
2013-01-11 11:13:00,62.3,53.5,29.87,SSW,203,9.6,11.6,73,0.00,,,0.00,WUHU216HW,2013-01-11 17:13:00,
2013-01-11 11:18:00,62.5,53.6,29.87,SSW,203,13.0,13.0,73,0.00,,,0.00,WUHU216HW,2013-01-11 17:18:00,
2013-01-11 11:23:00,62.3,53.1,29.87,SW,225,6.3,13.0,72,0.00,,,0.00,WUHU216HW,2013-01-11 17:23:00,
2013-01-11 11:28:00,62.3,53.5,29.87,WSW,248,8.1,12.8,73,0.00,,,0.00,WUHU216HW,2013-01-11 17:28:00,
2013-01-11 11:33:00,62.1,53.0,29.87,SW,225,11.4,12.8,72,0.00,,,0.00,WUHU216HW,2013-01-11 17:33:00,
2013-01-11 11:38:00,61.9,53.2,29.86,SSW,203,7.4,11.9,73,0.00,,,0.00,WUHU216HW,2013-01-11 17:38:00,
2013-01-11 11:43:00,62.1,53.4,29.86,SSW,203,7.6,10.3,73,0.00,,,0.00,WUHU216HW,2013-01-11 17:43:00,
2013-01-11 11:48:00,62.3,53.5,29.85,South,180,7.6,9.6,73,0.00,,,0.00,WUHU216HW,2013-01-11 17:48:00,
2013-01-11 11:53:00,62.3,53.5,29.85,South,180,8.5,9.6,73,0.00,,,0.00,WUHU216HW,2013-01-11 17:53:00,
2013-01-11 11:58:00,62.5,53.6,29.84,SSW,203,6.0,8.7,73,0.00,,,0.00,WUHU216HW,2013-01-11 17:58:00,
2013-01-11 12:03:00,62.5,53.6,29.84,SSW,203,5.1,6.9,73,0.00,,,0.00,WUHU216HW,2013-01-11 18:03:00,
2013-01-11 12:08:00,62.8,54.4,29.83,SW,225,4.7,8.7,74,0.00,,,0.00,WUHU216HW,2013-01-11 18:08:00,
2013-01-11 12:13:00,63.2,54.4,29.83,South,180,8.1,11.4,73,0.00,,,0.00,WUHU216HW,2013-01-11 18:13:00,
2013-01-11 12:18:00,63.7,54.5,29.82,South,180,6.9,11.4,72,0.00,,,0.00,WUHU216HW,2013-01-11 18:18:00,
2013-01-11 12:23:00,64.4,54.5,29.82,South,180,10.3,12.1,70,0.00,,,0.00,WUHU216HW,2013-01-11 18:23:00,
2013-01-11 12:28:00,64.8,54.0,29.82,South,180,12.5,12.5,68,0.00,,,0.00,WUHU216HW,2013-01-11 18:28:00,
2013-01-11 12:33:00,65.2,54.4,29.81,SW,225,10.1,14.8,68,0.00,,,0.00,WUHU216HW,2013-01-11 18:33:00,
2013-01-11 12:38:00,65.5,55.1,29.81,WSW,248,10.5,14.8,69,0.00,,,0.00,WUHU216HW,2013-01-11 18:38:00,
2013-01-11 12:43:00,65.5,54.6,29.81,SW,225,8.5,11.6,68,0.00,,,0.00,WUHU216HW,2013-01-11 18:43:00,
2013-01-11 12:48:00,65.5,54.3,29.81,SSW,203,9.6,9.8,67,0.00,,,0.00,WUHU216HW,2013-01-11 18:48:00,
2013-01-11 12:53:00,65.2,53.9,29.81,South,180,8.5,11.4,67,0.00,,,0.00,WUHU216HW,2013-01-11 18:53:00,
2013-01-11 12:58:00,65.2,54.4,29.81,SSW,203,8.5,11.4,68,0.00,,,0.00,WUHU216HW,2013-01-11 18:58:00,
2013-01-11 13:03:00,65.3,54.6,29.80,South,180,8.9,11.4,68,0.00,,,0.00,WUHU216HW,2013-01-11 19:03:00,
2013-01-11 13:08:00,66.1,55.6,29.80,SSE,158,6.0,8.9,69,0.00,,,0.00,WUHU216HW,2013-01-11 19:08:00,
2013-01-11 13:13:00,67.3,56.0,29.79,SSW,203,5.4,8.5,67,0.00,,,0.00,WUHU216HW,2013-01-11 19:13:00,
2013-01-11 13:18:00,67.9,54.4,29.79,South,180,11.9,12.1,62,0.00,,,0.00,WUHU216HW,2013-01-11 19:18:00,
2013-01-11 13:23:00,68.0,54.6,29.78,South,180,8.5,14.1,62,0.00,,,0.00,WUHU216HW,2013-01-11 19:23:00,
2013-01-11 13:28:00,68.6,54.6,29.78,SSW,203,10.5,14.1,61,0.00,,,0.00,WUHU216HW,2013-01-11 19:28:00,
2013-01-11 13:33:00,68.8,54.8,29.78,South,180,6.9,10.5,61,0.00,,,0.00,WUHU216HW,2013-01-11 19:33:00,
2013-01-11 13:38:00,68.8,53.4,29.78,SSW,203,11.4,11.4,58,0.00,,,0.00,WUHU216HW,2013-01-11 19:38:00,
2013-01-11 13:43:00,68.8,53.4,29.77,West,270,10.3,11.4,58,0.00,,,0.00,WUHU216HW,2013-01-11 19:43:00,
2013-01-11 13:48:00,69.3,53.4,29.77,SSW,203,13.4,13.4,57,0.00,,,0.00,WUHU216HW,2013-01-11 19:48:00,
2013-01-11 13:53:00,69.5,53.6,29.77,SSW,203,12.3,14.3,57,0.00,,,0.00,WUHU216HW,2013-01-11 19:53:00,
2013-01-11 13:58:00,69.7,54.3,29.77,SSW,203,9.4,14.3,58,0.00,,,0.00,WUHU216HW,2013-01-11 19:58:00,
2013-01-11 14:03:00,69.7,54.3,29.77,South,180,6.3,11.2,58,0.00,,,0.00,WUHU216HW,2013-01-11 20:03:00,
2013-01-11 14:08:00,69.7,54.7,29.77,South,180,5.4,11.4,59,0.00,,,0.00,WUHU216HW,2013-01-11 20:08:00,
2013-01-11 14:13:00,69.7,54.3,29.76,SSE,158,9.8,12.8,58,0.00,,,0.00,WUHU216HW,2013-01-11 20:13:00,
2013-01-11 14:18:00,69.8,53.9,29.76,South,180,8.1,13.4,57,0.00,,,0.00,WUHU216HW,2013-01-11 20:18:00,
2013-01-11 14:23:00,69.8,54.5,29.76,South,180,6.9,13.4,58,0.00,,,0.00,WUHU216HW,2013-01-11 20:23:00,
2013-01-11 14:28:00,70.2,54.7,29.76,South,180,10.5,10.7,58,0.00,,,0.00,WUHU216HW,2013-01-11 20:28:00,
2013-01-11 14:33:00,70.4,54.5,29.76,South,180,7.8,11.0,57,0.00,,,0.00,WUHU216HW,2013-01-11 20:33:00,
2013-01-11 14:38:00,70.4,54.5,29.76,SSW,203,12.5,13.2,57,0.00,,,0.00,WUHU216HW,2013-01-11 20:38:00,
2013-01-11 14:43:00,70.7,55.3,29.76,South,180,8.7,13.2,58,0.00,,,0.00,WUHU216HW,2013-01-11 20:43:00,
2013-01-11 14:48:00,71.1,55.5,29.76,SSE,158,9.2,10.7,58,0.00,,,0.00,WUHU216HW,2013-01-11 20:48:00,
2013-01-11 14:53:00,71.1,55.5,29.75,South,180,4.9,10.7,58,0.00,,,0.00,WUHU216HW,2013-01-11 20:53:00,
2013-01-11 14:58:00,71.6,55.5,29.75,South,180,7.6,8.3,57,0.00,,,0.00,WUHU216HW,2013-01-11 20:58:00,
2013-01-11 15:03:00,72.2,54.6,29.75,SSW,203,10.1,15.7,54,0.00,,,0.00,WUHU216HW,2013-01-11 21:03:00,
2013-01-11 15:08:00,72.2,54.6,29.74,WSW,248,9.8,15.7,54,0.00,,,0.00,WUHU216HW,2013-01-11 21:08:00,
2013-01-11 15:13:00,72.0,54.4,29.74,SSW,203,7.6,13.6,54,0.00,,,0.00,WUHU216HW,2013-01-11 21:13:00,
2013-01-11 15:18:00,71.6,54.0,29.74,SSW,203,10.7,14.1,54,0.00,,,0.00,WUHU216HW,2013-01-11 21:18:00,
2013-01-11 15:23:00,72.0,54.9,29.75,South,180,17.0,17.0,55,0.00,,,0.00,WUHU216HW,2013-01-11 21:23:00,
2013-01-11 15:28:00,71.6,55.1,29.75,South,180,13.4,17.0,56,0.00,,,0.00,WUHU216HW,2013-01-11 21:28:00,
2013-01-11 15:33:00,70.9,54.9,29.75,South,180,12.1,14.5,57,0.00,,,0.00,WUHU216HW,2013-01-11 21:33:00,
2013-01-11 15:38:00,70.6,55.1,29.75,SSW,203,10.5,16.3,58,0.00,,,0.00,WUHU216HW,2013-01-11 21:38:00,
2013-01-11 15:43:00,70.9,55.9,29.76,South,180,15.7,16.3,59,0.00,,,0.00,WUHU216HW,2013-01-11 21:43:00,
2013-01-11 15:48:00,71.1,56.1,29.75,SSW,203,13.4,16.3,59,0.00,,,0.00,WUHU216HW,2013-01-11 21:48:00,
2013-01-11 15:53:00,70.7,55.7,29.75,SSW,203,16.3,16.3,59,0.00,,,0.00,WUHU216HW,2013-01-11 21:53:00,
2013-01-11 15:58:00,70.6,55.6,29.76,South,180,12.3,17.9,59,0.00,,,0.00,WUHU216HW,2013-01-11 21:58:00,
2013-01-11 16:03:00,70.6,56.1,29.76,SSE,158,14.3,17.9,60,0.00,,,0.00,WUHU216HW,2013-01-11 22:03:00,
2013-01-11 16:08:00,70.9,56.4,29.75,South,180,11.4,14.3,60,0.00,,,0.00,WUHU216HW,2013-01-11 22:08:00,
2013-01-11 16:13:00,70.9,56.9,29.75,SSE,158,11.4,12.8,61,0.00,,,0.00,WUHU216HW,2013-01-11 22:13:00,
2013-01-11 16:18:00,70.6,56.5,29.75,South,180,8.7,11.4,61,0.00,,,0.00,WUHU216HW,2013-01-11 22:18:00,
2013-01-11 16:23:00,70.2,57.1,29.75,South,180,9.2,11.0,63,0.00,,,0.00,WUHU216HW,2013-01-11 22:23:00,
2013-01-11 16:28:00,69.8,57.1,29.75,SSW,203,17.2,17.2,64,0.00,,,0.00,WUHU216HW,2013-01-11 22:28:00,
2013-01-11 16:33:00,70.0,57.2,29.74,SSW,203,11.0,17.2,64,0.00,,,0.00,WUHU216HW,2013-01-11 22:33:00,
2013-01-11 16:38:00,70.2,57.1,29.74,SSE,158,10.5,14.8,63,0.00,,,0.00,WUHU216HW,2013-01-11 22:38:00,
2013-01-11 16:43:00,70.2,57.1,29.75,SW,225,9.2,13.0,63,0.00,,,0.00,WUHU216HW,2013-01-11 22:43:00,
2013-01-11 16:48:00,70.0,56.9,29.74,SSW,203,11.2,12.1,63,0.00,,,0.00,WUHU216HW,2013-01-11 22:48:00,
2013-01-11 16:53:00,69.8,56.7,29.74,South,180,11.0,12.3,63,0.00,,,0.00,WUHU216HW,2013-01-11 22:53:00,
2013-01-11 16:58:00,69.5,56.4,29.74,South,180,11.4,12.3,63,0.00,,,0.00,WUHU216HW,2013-01-11 22:58:00,
2013-01-11 17:03:00,69.5,56.4,29.74,South,180,11.4,11.4,63,0.00,,,0.00,WUHU216HW,2013-01-11 23:03:00,
2013-01-11 17:08:00,69.1,56.4,29.73,SSW,203,9.6,11.4,64,0.00,,,0.00,WUHU216HW,2013-01-11 23:08:00,
2013-01-11 17:13:00,68.8,56.1,29.74,South,180,6.5,10.3,64,0.00,,,0.00,WUHU216HW,2013-01-11 23:13:00,
2013-01-11 17:18:00,68.6,56.4,29.74,South,180,6.5,10.3,65,0.00,,,0.00,WUHU216HW,2013-01-11 23:18:00,
2013-01-11 17:23:00,68.2,56.0,29.74,South,180,4.7,8.9,65,0.00,,,0.00,WUHU216HW,2013-01-11 23:23:00,
2013-01-11 17:28:00,67.9,56.1,29.74,SSW,203,4.3,7.8,66,0.00,,,0.00,WUHU216HW,2013-01-11 23:28:00,
2013-01-11 17:33:00,67.5,56.2,29.75,SSW,203,4.5,7.8,67,0.00,,,0.00,WUHU216HW,2013-01-11 23:33:00,
2013-01-11 17:38:00,67.3,56.4,29.74,SSW,203,5.8,6.9,68,0.00,,,0.00,WUHU216HW,2013-01-11 23:38:00,
2013-01-11 17:43:00,67.0,56.1,29.75,South,180,4.3,6.9,68,0.00,,,0.00,WUHU216HW,2013-01-11 23:43:00,
2013-01-11 17:48:00,66.8,55.9,29.75,South,180,5.1,6.7,68,0.00,,,0.00,WUHU216HW,2013-01-11 23:48:00,
2013-01-11 17:53:00,66.6,56.1,29.75,South,180,6.3,6.9,69,0.00,,,0.00,WUHU216HW,2013-01-11 23:53:00,
2013-01-11 17:58:00,66.4,55.9,29.75,SSE,158,4.0,6.9,69,0.00,,,0.00,WUHU216HW,2013-01-11 23:58:00,
2013-01-11 18:03:00,66.2,56.2,29.75,South,180,6.7,6.7,70,0.00,,,0.00,WUHU216HW,2013-01-12 00:03:00,
2013-01-11 18:08:00,66.2,56.2,29.75,South,180,4.5,6.7,70,0.00,,,0.00,WUHU216HW,2013-01-12 00:08:00,
2013-01-11 18:13:00,66.1,56.3,29.75,South,180,4.9,6.3,71,0.00,,,0.00,WUHU216HW,2013-01-12 00:13:00,
2013-01-11 18:18:00,66.1,56.8,29.76,SSW,203,6.0,6.3,72,0.00,,,0.00,WUHU216HW,2013-01-12 00:18:00,
2013-01-11 18:23:00,66.1,57.2,29.76,South,180,4.7,6.0,73,0.00,,,0.00,WUHU216HW,2013-01-12 00:23:00,
2013-01-11 18:28:00,66.2,57.7,29.76,South,180,7.4,7.4,74,0.00,,,0.00,WUHU216HW,2013-01-12 00:28:00,
2013-01-11 18:33:00,66.2,57.7,29.76,South,180,7.8,7.8,74,0.00,,,0.00,WUHU216HW,2013-01-12 00:33:00,
2013-01-11 18:38:00,66.4,57.9,29.75,SSW,203,6.7,8.3,74,0.00,,,0.00,WUHU216HW,2013-01-12 00:38:00,
2013-01-11 18:43:00,66.4,57.9,29.75,SSW,203,6.3,9.2,74,0.00,,,0.00,WUHU216HW,2013-01-12 00:43:00,
2013-01-11 18:48:00,66.2,57.7,29.75,South,180,4.0,9.2,74,0.00,,,0.00,WUHU216HW,2013-01-12 00:48:00,
2013-01-11 18:53:00,66.2,58.4,29.76,SSE,158,7.2,7.6,76,0.00,,,0.00,WUHU216HW,2013-01-12 00:53:00,
2013-01-11 18:58:00,66.2,58.8,29.75,SSE,158,7.2,7.6,77,0.00,,,0.00,WUHU216HW,2013-01-12 00:58:00,
2013-01-11 19:03:00,66.2,59.2,29.76,SSE,158,6.7,9.4,78,0.00,,,0.00,WUHU216HW,2013-01-12 01:03:00,
2013-01-11 19:08:00,66.2,59.2,29.76,South,180,6.3,9.8,78,0.00,,,0.00,WUHU216HW,2013-01-12 01:08:00,
2013-01-11 19:13:00,66.2,59.6,29.76,South,180,7.6,10.5,79,0.00,,,0.00,WUHU216HW,2013-01-12 01:13:00,
2013-01-11 19:18:00,66.1,59.4,29.76,South,180,9.2,10.5,79,0.00,,,0.00,WUHU216HW,2013-01-12 01:18:00,
2013-01-11 19:23:00,65.9,59.6,29.76,South,180,11.4,11.4,80,0.00,,,0.00,WUHU216HW,2013-01-12 01:23:00,
2013-01-11 19:28:00,65.9,59.6,29.76,SSW,203,10.5,11.4,80,0.00,,,0.00,WUHU216HW,2013-01-12 01:28:00,
2013-01-11 19:33:00,65.9,59.6,29.76,South,180,7.6,10.7,80,0.00,,,0.00,WUHU216HW,2013-01-12 01:33:00,
2013-01-11 19:38:00,65.9,60.0,29.76,SSW,203,10.1,10.5,81,0.00,,,0.00,WUHU216HW,2013-01-12 01:38:00,
2013-01-11 19:43:00,65.9,60.0,29.77,SSW,203,8.9,10.5,81,0.00,,,0.00,WUHU216HW,2013-01-12 01:43:00,
2013-01-11 19:48:00,65.9,60.2,29.77,South,180,9.2,12.5,82,0.00,,,0.00,WUHU216HW,2013-01-12 01:48:00,
2013-01-11 19:53:00,65.9,60.2,29.77,SSW,203,11.6,12.5,82,0.00,,,0.00,WUHU216HW,2013-01-12 01:53:00,
2013-01-11 19:58:00,65.9,60.2,29.77,SSW,203,8.3,12.3,82,0.00,,,0.00,WUHU216HW,2013-01-12 01:58:00,
2013-01-11 19:59:00,65.9,60.2,29.77,SSW,203,12.1,12.1,82,0.00,,,0.00,WUHU216HW,2013-01-12 01:59:00,
2013-01-11 20:03:00,65.9,60.2,29.77,SSW,203,12.1,12.1,82,0.00,,,0.00,WUHU216HW,2013-01-12 02:03:00,
2013-01-11 20:08:00,65.9,60.2,29.77,SSW,203,12.1,12.1,82,0.00,,,0.00,WUHU216HW,2013-01-12 02:08:00,
2013-01-11 21:00:00,65.2,60.6,29.78,South,180,9.2,9.2,85,0.00,,,0.00,WUHU216HW,2013-01-12 03:00:00,
2013-01-11 21:05:00,65.2,60.8,29.78,SSE,158,12.1,12.1,86,0.00,,,0.00,WUHU216HW,2013-01-12 03:05:00,
2013-01-11 21:10:00,65.2,60.6,29.77,South,180,11.4,13.2,85,0.00,,,0.00,WUHU216HW,2013-01-12 03:10:00,
2013-01-11 21:15:00,65.2,60.6,29.78,South,180,6.5,13.2,85,0.00,,,0.00,WUHU216HW,2013-01-12 03:15:00,
2013-01-11 21:20:00,65.0,60.7,29.78,SSW,203,8.1,12.1,86,0.00,,,0.00,WUHU216HW,2013-01-12 03:20:00,
2013-01-11 21:25:00,65.0,60.7,29.78,South,180,9.2,13.9,86,0.00,,,0.00,WUHU216HW,2013-01-12 03:25:00,
2013-01-11 21:30:00,64.8,60.8,29.78,South,180,9.6,13.9,87,0.00,,,0.00,WUHU216HW,2013-01-12 03:30:00,
2013-01-11 21:35:00,64.8,60.8,29.79,SSE,158,8.5,11.0,87,0.00,,,0.00,WUHU216HW,2013-01-12 03:35:00,
2013-01-11 21:40:00,64.8,60.8,29.79,South,180,8.5,10.5,87,0.00,,,0.00,WUHU216HW,2013-01-12 03:40:00,
2013-01-11 21:45:00,64.8,60.8,29.79,South,180,8.5,10.5,87,0.00,,,0.00,WUHU216HW,2013-01-12 03:45:00,
2013-01-11 21:50:00,64.8,60.8,29.79,South,180,5.4,9.2,87,0.00,,,0.00,WUHU216HW,2013-01-12 03:50:00,
2013-01-11 21:55:00,64.8,60.8,29.80,SSW,203,7.8,9.2,87,0.00,,,0.00,WUHU216HW,2013-01-12 03:55:00,
2013-01-11 22:00:00,64.8,60.8,29.80,South,180,7.4,8.1,87,0.00,,,0.00,WUHU216HW,2013-01-12 04:00:00,
2013-01-11 22:05:00,64.8,60.8,29.80,South,180,7.4,7.6,87,0.00,,,0.00,WUHU216HW,2013-01-12 04:05:00,
2013-01-11 22:10:00,64.8,60.8,29.80,SSW,203,7.6,7.6,87,0.00,,,0.00,WUHU216HW,2013-01-12 04:10:00,
2013-01-11 22:15:00,64.6,60.7,29.79,South,180,6.9,9.2,87,0.00,,,0.00,WUHU216HW,2013-01-12 04:15:00,
2013-01-11 22:20:00,64.6,60.7,29.79,SSE,158,4.7,9.4,87,0.00,,,0.00,WUHU216HW,2013-01-12 04:20:00,
2013-01-11 22:25:00,64.4,60.8,29.80,SSW,203,5.1,9.4,88,0.00,,,0.00,WUHU216HW,2013-01-12 04:25:00,
2013-01-11 22:30:00,64.4,60.6,29.80,South,180,6.3,8.5,87,0.00,,,0.00,WUHU216HW,2013-01-12 04:30:00,
2013-01-11 22:35:00,64.4,60.8,29.80,South,180,5.1,6.9,88,0.00,,,0.00,WUHU216HW,2013-01-12 04:35:00,
2013-01-11 22:40:00,64.4,60.8,29.80,South,180,6.3,6.9,88,0.00,,,0.00,WUHU216HW,2013-01-12 04:40:00,
2013-01-11 22:45:00,64.4,60.8,29.80,South,180,8.1,8.1,88,0.00,,,0.00,WUHU216HW,2013-01-12 04:45:00,
2013-01-11 22:50:00,64.4,60.8,29.80,South,180,7.6,8.1,88,0.00,,,0.00,WUHU216HW,2013-01-12 04:50:00,
2013-01-11 22:55:00,64.4,60.8,29.80,SSE,158,8.5,8.5,88,0.00,,,0.00,WUHU216HW,2013-01-12 04:55:00,
2013-01-11 23:01:00,64.4,60.8,29.80,South,180,6.5,9.2,88,0.00,,,0.00,WUHU216HW,2013-01-12 05:01:00,
2013-01-11 23:03:00,64.4,60.8,29.80,SSE,158,8.5,9.2,88,0.00,,,0.00,WUHU216HW,2013-01-12 05:03:00,
2013-01-11 23:08:00,64.4,61.2,29.81,South,180,7.6,8.5,89,0.00,,,0.00,WUHU216HW,2013-01-12 05:08:00,
2013-01-11 23:13:00,64.4,61.2,29.80,South,180,6.9,8.3,89,0.00,,,0.00,WUHU216HW,2013-01-12 05:13:00,
2013-01-11 23:19:00,64.4,61.2,29.80,South,180,8.9,8.9,89,0.00,,,0.00,WUHU216HW,2013-01-12 05:19:00,
2013-01-11 23:24:00,64.4,61.2,29.81,SSE,158,5.4,8.9,89,0.00,,,0.00,WUHU216HW,2013-01-12 05:24:00,
2013-01-11 23:29:00,64.6,61.4,29.80,South,180,8.3,9.8,89,0.00,,,0.00,WUHU216HW,2013-01-12 05:29:00,
2013-01-11 23:34:00,64.6,61.4,29.81,SSE,158,7.6,9.8,89,0.00,,,0.00,WUHU216HW,2013-01-12 05:34:00,
2013-01-11 23:39:00,64.6,61.4,29.81,South,180,3.8,8.9,89,0.00,,,0.00,WUHU216HW,2013-01-12 05:39:00,
2013-01-11 23:44:00,64.6,61.4,29.81,South,180,8.9,8.9,89,0.00,,,0.00,WUHU216HW,2013-01-12 05:44:00,
2013-01-11 23:49:00,64.6,61.4,29.81,South,180,6.5,9.8,89,0.00,,,0.00,WUHU216HW,2013-01-12 05:49:00,
2013-01-11 23:54:00,64.6,61.4,29.81,South,180,5.4,9.8,89,0.00,,,0.00,WUHU216HW,2013-01-12 05:54:00,
2013-01-11 23:59:00,64.6,61.0,29.81,South,180,4.7,6.7,88,0.00,,,0.00,WUHU216HW,2013-01-12 05:59:00,